Monday, November 20, 2017, 6:58 PM GMT
Back to Local

CYHU, Saint Hubert Airport

Location: , , Canada Lat: 45.517
Local Time: 6:58 PM GMT (18:58 GMT) Lon: -73.417
Time Zone: GMT Elev: 88 ft

Show me the last for .
Show Decoded

2017-11-20 18:27 METAR CYHU 201827Z AUTO 28013G19KT 9SM FEW024 SCT032 M06/M12 A2989 RMK SLP124 =
2017-11-20 18:00 METAR CYHU 201800Z AUTO 30013G18KT 9SM -SN SCT024 SCT030 BKN035 OVC045 M05/M11
                 A2988 RMK SLP121 =
2017-11-20 17:14 METAR CYHU 201714Z AUTO 27014G22KT 9SM -SN OVC034 M05/M11 A2987 RMK SLP119 =
2017-11-20 17:10 METAR CYHU 201710Z AUTO 27013G22KT 9SM OVC034 M05/M12 A2987 RMK SLP119 =
2017-11-20 17:00 METAR CYHU 201700Z AUTO 26017G23KT 9SM -SN OVC036 M05/M12 A2987 RMK SLP119 =
2017-11-20 16:49 METAR CYHU 201649Z AUTO 27019G26KT 9SM -SN OVC036 M05/M12 A2987 RMK SLP117 =
2017-11-20 16:00 METAR CYHU 201600Z AUTO 27016G25KT 9SM SCT030 OVC037 M05/M11 A2986 RMK SLP116 =
2017-11-20 15:10 METAR CYHU 201510Z AUTO 26019KT 9SM SCT028 BKN037 OVC046 M06/M11 A2987 RMK
                 SLP119 =
2017-11-20 15:00 METAR CYHU 201500Z AUTO 26013G20KT 9SM -SN SCT026 SCT033 OVC043 M06/M11 A2987
                 RMK SLP119 =
2017-11-20 14:39 METAR CYHU 201439Z AUTO 26019G25KT 9SM -SN BKN038 OVC048 M06/M12 A2987 RMK
                 SLP118 =
2017-11-20 14:38 METAR CYHU 201438Z AUTO 26019G25KT 9SM SCT035 OVC046 M06/M12 A2987 RMK SLP118 =
2017-11-20 14:24 METAR CYHU 201424Z AUTO 27016G26KT 9SM -SN FEW037 BKN048 M06/M13 A2986 RMK
                 SLP115 =
2017-11-20 14:00 METAR CYHU 201400Z AUTO 27020G28KT 9SM BKN048 M06/M12 A2985 RMK SLP112 =
2017-11-20 13:45 METAR CYHU 201345Z AUTO 26020KT 9SM FEW036 SCT044 M06/M11 A2985 RMK SLP112 =
2017-11-20 13:31 METAR CYHU 201331Z AUTO 28010G21KT 9SM FEW027 M06/M12 A2984 RMK SLP109 =
2017-11-20 13:12 METAR CYHU 201312Z AUTO 28011G21KT 9SM -SN BKN029 BKN042 M06/M12 A2983 RMK
                 SLP105 =
2017-11-20 13:00 METAR CYHU 201300Z AUTO 28017G23KT 9SM BKN035 OVC042 M07/M13 A2983 RMK SLP106 =
2017-11-20 12:56 METAR CYHU 201256Z AUTO 27018G23KT 9SM OVC039 M07/M13 A2984 RMK SLP107 =
2017-11-20 12:44 METAR CYHU 201244Z AUTO 28015G25KT 9SM -SN OVC037 M06/M13 A2983 RMK SLP106 =
2017-11-20 12:00 METAR CYHU 201200Z AUTO 28015G24KT 9SM OVC035 M06/M12 A2981 RMK SLP098 =
2017-11-20 11:57 METAR CYHU 201157Z AUTO 27017G24KT 9SM FEW029 OVC035 M06/M12 A2981 RMK SLP098 =
2017-11-20 11:00 METAR CYHU 201100Z AUTO 27012G21KT 9SM -SN OVC033 M06/M10 A2978 RMK SLP088 =
2017-11-20 10:40 METAR CYHU 201040Z AUTO 27013G21KT 6SM -SN SCT023 BKN029 OVC035 M06/M10 A2977
                 RMK SLP084 =
2017-11-20 10:35 METAR CYHU 201035Z AUTO 27016G21KT 3SM -SN SCT023 BKN029 OVC037 M06/M09 A2977
                 RMK SLP083 =
2017-11-20 10:22 METAR CYHU 201022Z AUTO 28016G24KT 5SM -SN OVC021 M06/M09 A2976 RMK SLP081 =
2017-11-20 10:00 METAR CYHU 201000Z AUTO 29015G23KT 9SM -SN BKN021 OVC075 M05/M09 A2975 RMK
                 SLP077 =
2017-11-20 09:51 METAR CYHU 200951Z AUTO 27016G25KT 9SM -SN BKN021 OVC075 M05/M09 A2975 RMK
                 PRESRR SLP076 =
2017-11-20 09:50 METAR CYHU 200950Z AUTO 28016G27KT 9SM -SN SCT021 BKN030 OVC075 M05/M09 A2975
                 RMK PRESRR SLP076 =
2017-11-20 09:23 METAR CYHU 200923Z AUTO 27011G18KT 9SM SCT024 BKN031 BKN042 OVC075 M04/M09 A2973
                 RMK SLP070 =
2017-11-20 09:06 METAR CYHU 200906Z AUTO 26016G22KT 9SM BKN022 BKN031 OVC085 M04/M08 A2972 RMK
                 SLP067 =
2017-11-20 09:00 METAR CYHU 200900Z AUTO 27011G17KT 9SM SCT025 BKN032 BKN055 OVC085 M04/M08 A2972
                 RMK SLP067 =
2017-11-20 08:39 METAR CYHU 200839Z AUTO 28012G18KT 9SM SCT020 BKN028 BKN045 OVC055 M04/M08 A2971
                 RMK SLP063 =
2017-11-20 08:35 METAR CYHU 200835Z AUTO 26012G21KT 9SM -SN SCT020 BKN026 BKN045 OVC055 M04/M08
                 A2970 RMK SLP062 =
2017-11-20 08:00 METAR CYHU 200800Z AUTO 29009KT 9SM -SN BKN022 OVC095 M03/M07 A2970 RMK SLP060 =
2017-11-20 07:49 METAR CYHU 200749Z AUTO 28010G15KT 9SM -SN BKN024 OVC095 M03/M07 A2970 RMK
                 SLP060 =
2017-11-20 07:45 METAR CYHU 200745Z AUTO 27011G17KT 9SM -SN SCT026 OVC095 M03/M07 A2970 RMK
                 SLP059 =
2017-11-20 07:00 METAR CYHU 200700Z AUTO 28015G21KT 9SM BKN075 OVC094 M03/M08 A2968 RMK SLP053 =
2017-11-20 06:00 METAR CYHU 200600Z AUTO 27013KT 9SM SCT070 OVC100 M03/M07 A2966 RMK SLP047 =
2017-11-20 05:00 METAR CYHU 200500Z AUTO 27014G19KT 9SM SCT065 BKN091 OVC140 M03/M07 A2964 RMK
                 SLP041 =
2017-11-20 04:00 METAR CYHU 200400Z AUTO 27014G21KT 9SM FEW025 BKN030 OVC080 M03/M07 A2962 RMK
                 SLP034 =
2017-11-20 03:00 METAR CYHU 200300Z AUTO 28019G25KT 9SM OVC026 M02/M07 A2959 RMK SLP025 =
2017-11-20 02:00 METAR CYHU 200200Z AUTO 28016G27KT 9SM OVC026 M02/M06 A2957 RMK SLP015 =
2017-11-20 01:00 METAR CYHU 200100Z AUTO 28016G25KT 9SM OVC039 M01/M06 A2954 RMK SLP007 =
2017-11-20 00:47 METAR CYHU 200047Z AUTO 28014G21KT 9SM FEW023 OVC041 M01/M05 A2955 RMK SLP008 =
2017-11-20 00:20 METAR CYHU 200020Z AUTO 28013G18KT 9SM -SN FEW023 SCT030 OVC039 M01/M05 A2954
                 RMK SLP006 =
2017-11-20 00:02 METAR CYHU 200002Z AUTO 29014G24KT 9SM BKN033 OVC040 M01/M05 A2954 RMK SLP004 =
2017-11-20 00:00 METAR CYHU 200000Z AUTO 28015G24KT 9SM -SN SCT030 OVC036 M01/M05 A2954 RMK
                 SLP005 =
2017-11-19 23:37 METAR CYHU 192337Z AUTO 27015G21KT 9SM -SN FEW023 OVC033 M01/M05 A2952 RMK
                 SLP999 =
2017-11-19 23:24 METAR CYHU 192324Z AUTO 27014G24KT 9SM SCT023 OVC031 M01/M05 A2952 RMK SLP000 =
2017-11-19 23:20 METAR CYHU 192320Z AUTO 27020KT 9SM -SN SCT025 OVC031 M01/M05 A2952 RMK SLP998 =
2017-11-19 23:00 METAR CYHU 192300Z AUTO 28009G19KT 9SM -SN FEW023 OVC031 M01/M05 A2951 RMK
                 SLP997 =
2017-11-19 22:41 METAR CYHU 192241Z AUTO 29013G19KT 9SM -SN SCT023 OVC029 M01/M04 A2951 RMK
                 SLP995 =
2017-11-19 22:28 METAR CYHU 192228Z AUTO 26015KT 9SM -SN BKN023 OVC029 M01/M04 A2950 RMK SLP993 =
2017-11-19 22:27 METAR CYHU 192227Z AUTO 27015KT 9SM -SN OVC026 M01/M04 A2950 RMK SLP993 =
2017-11-19 22:24 METAR CYHU 192224Z AUTO 26013KT 9SM -SN BKN023 OVC029 M01/M04 A2950 RMK SLP993 =
2017-11-19 22:00 METAR CYHU 192200Z AUTO 27012G19KT 9SM -SN OVC031 M01/M04 A2949 RMK SLP987 =
2017-11-19 21:41 METAR CYHU 192141Z AUTO 26015G22KT 9SM -SN OVC031 M01/M05 A2948 RMK SLP986 =
2017-11-19 21:00 METAR CYHU 192100Z AUTO 27016G22KT 9SM OVC033 M01/M05 A2946 RMK SLP978 =
2017-11-19 20:00 METAR CYHU 192000Z AUTO 28016G22KT 9SM BKN027 OVC033 M01/M05 A2941 RMK PRESRR
                 SLP963 =
2017-11-19 19:24 METAR CYHU 191924Z AUTO 28015G27KT 9SM BKN027 OVC034 M01/M05 A2938 RMK SLP950 =
2017-11-19 19:14 METAR CYHU 191914Z AUTO 28020G25KT 9SM -SN OVC025 M01/M05 A2937 RMK SLP949 =
2017-11-19 19:00 METAR CYHU 191900Z AUTO 29015G31KT 9SM BKN025 OVC035 M01/M05 A2936 RMK PRESRR
                 SLP946 =

Support USWX by starting your Amazon purchase here.